Ponchatoula, LA (70454)

12:07 AM CDT on April 27, 2015 (GMT -0500)
Bayou Canada South | | Change Station
CLOSE
Current Station
Personal Weather Station
Location: Ponchatoula, LA
Elevation: 35 ft
Nearby Weather Stations

Elev 35 ft 30.45 °N, 90.36 °W | Updated 57 seconds ago

Clear
Clear
70.5 °F
Feels Like 70.5 °F
N
0.0
Wind Variable Wind from ESE
Gusts 0.0 mph

Today
High -- | Low -- °F
--% Chance of Precip.
Yesterday
High -- | Low -- °F
Precip. -- in
6:22 AM 7:36 PM
First Quarter, 61% visible
Pressure 29.75 in
Visibility 7.0 miles
Clouds Clear
Dew Point 70 °F
Humidity 98%
Rainfall 0.00 in
Snow Depth Not available.
UV 1.3 out of 12
Pollen 7.10 out of 12
Air Quality Not available.
Flu Activity Sporadic
METAR KHDC 270435Z AUTO 00000KT 7SM CLR 22/21 A2975 RMK AO2 LTG DSNT SE

More Conditions Fewer Conditions

Pressure 29.75 in
Visibility 7.0 miles
Clouds Clear
Dew Point 70 °F
Humidity 98%
Rainfall 0.00 in
Snow Depth Not available.
UV 1.3 out of 12
Pollen 7.10 out of 12
Air Quality Not available.
Flu Activity Sporadic
METAR KHDC 270435Z AUTO 00000KT 7SM CLR 22/21 A2975 RMK AO2 LTG DSNT SE

More Conditions Fewer Conditions

The full scope of the disaster following a powerful 7.8-magnitude earthquake in Nepal may not come into view for days, but global charities are already sending emergency aid. Click to see how you can help.

10-Day Weather Forecast

Almanac

Astronomy

Apr. 27, 2015 Rise Set
Actual Time
Civil Twilight
Nautical Twilight
Astronomical Twilight
Moon
Length of Visible Light
Length of Day
Tomorrow will be .
, % of the Moon is Illuminated

Today's Extremes

State Highs State Lows

Community

WunderPhotos

Upload Photos

1,817,263 photos uploaded!

WunderBlogs® & News

Nearby

Air Quality

  Air Quality AQ Index Pollutant
Not available.

Snow Depth

Station Depth Elevation

Earthquake Activity

City Distance Mag. Time & Date
Minimum magnitude displayed is 2.5.

Coastal Water Temperatures

Place Temperature

Stations

Nearby Weather Stations

Station Location Temp. Windchill Dew Point Humidity Wind Precip. Elev Updated Type